Time;durP1;ratioP1;P1;durP2;ratioP2;P2;SDS_P1;SDS_P2;PMS_P1;PMS_P2;Temp;Humidity;BMP_temperature;BMP_pressure;BME280_temperature;BME280_humidity;BME280_pressure;Samples;Min_cycle;Max_cycle;Signal;HPM_P1;HPM_P2
2022/03/03 00:00:14;;;;;;;14.90;10.63;;;;;;;1.39;59.11;100775.59;5045865;28;20049;-80
2022/03/03 00:02:42;;;;;;;14.48;10.82;;;;;;;1.38;59.20;100775.81;5033481;28;20053;-79
2022/03/03 00:05:10;;;;;;;16.42;11.10;;;;;;;1.34;59.15;100766.41;5035357;28;20049;-80
2022/03/03 00:07:37;;;;;;;15.75;10.70;;;;;;;1.32;59.26;100768.56;5032048;28;20068;-79
2022/03/03 00:10:06;;;;;;;14.98;11.45;;;;;;;1.31;59.28;100770.50;5034051;28;20053;-79
2022/03/03 00:12:35;;;;;;;15.07;11.00;;;;;;;1.31;59.73;100773.22;5032034;28;20049;-79
2022/03/03 00:15:03;;;;;;;15.70;10.85;;;;;;;1.27;59.26;100760.25;5032544;28;20453;-79
2022/03/03 00:17:31;;;;;;;14.02;10.88;;;;;;;1.26;59.23;100773.16;5030018;28;20053;-79
2022/03/03 00:19:58;;;;;;;13.70;9.55;;;;;;;1.25;59.12;100776.13;5032849;28;20041;-79
2022/03/03 00:22:26;;;;;;;14.25;10.35;;;;;;;1.24;59.50;100768.97;5031236;28;20056;-79
2022/03/03 00:24:53;;;;;;;14.65;10.35;;;;;;;1.20;59.38;100769.47;5033098;28;20052;-80
2022/03/03 00:27:21;;;;;;;13.73;9.52;;;;;;;1.21;59.47;100775.78;5031815;28;20045;-79
2022/03/03 00:29:49;;;;;;;14.07;9.95;;;;;;;1.18;59.24;100777.09;5032604;28;20057;-79
2022/03/03 00:32:17;;;;;;;12.80;9.85;;;;;;;1.10;59.73;100774.75;5033206;28;20049;-80
2022/03/03 00:34:44;;;;;;;15.73;11.55;;;;;;;1.09;60.43;100772.25;5033683;28;20057;-80
2022/03/03 00:37:12;;;;;;;15.55;10.77;;;;;;;1.07;60.24;100775.25;5033766;28;20056;-80
2022/03/03 00:39:41;;;;;;;14.52;10.10;;;;;;;1.09;59.66;100775.84;5032405;28;20055;-80
2022/03/03 00:42:09;;;;;;;12.93;9.95;;;;;;;1.07;60.01;100775.25;5033629;28;20426;-80
2022/03/03 00:44:36;;;;;;;15.45;10.35;;;;;;;1.06;60.04;100770.81;5032443;28;20482;-79
2022/03/03 00:47:06;;;;;;;14.80;10.02;;;;;;;1.04;60.29;100781.22;5033173;28;20061;-80
2022/03/03 00:49:33;;;;;;;12.70;8.70;;;;;;;1.02;59.95;100777.88;5033153;28;20045;-80
2022/03/03 00:52:01;;;;;;;14.77;8.60;;;;;;;1.00;60.30;100783.59;5033021;28;20053;-80
2022/03/03 00:54:28;;;;;;;12.60;9.50;;;;;;;1.03;59.86;100790.53;5037636;28;20041;-80
2022/03/03 00:56:55;;;;;;;14.43;9.00;;;;;;;1.02;59.94;100786.94;5040387;28;20497;-80
2022/03/03 00:59:25;;;;;;;14.07;9.43;;;;;;;0.97;59.82;100775.03;5033675;28;20504;-80
2022/03/03 01:01:53;;;;;;;15.93;10.07;;;;;;;0.97;60.36;100775.03;5033314;28;20064;-81
2022/03/03 01:04:22;;;;;;;12.43;9.90;;;;;;;0.98;60.27;100776.69;5033656;28;20409;-80
2022/03/03 01:06:50;;;;;;;13.30;9.93;;;;;;;0.97;60.10;100777.78;5032552;28;20064;-80
2022/03/03 01:09:18;;;;;;;13.85;9.98;;;;;;;0.96;59.54;100770.63;5032739;28;20052;-80
2022/03/03 01:11:45;;;;;;;13.75;9.68;;;;;;;0.96;59.79;100770.63;5032827;28;20041;-80
2022/03/03 01:14:12;;;;;;;15.95;10.38;;;;;;;0.93;59.99;100771.13;5032730;28;20076;-80
2022/03/03 01:16:40;;;;;;;14.80;9.52;;;;;;;0.92;60.10;100762.03;5045892;28;20045;-80
2022/03/03 01:19:07;;;;;;;16.50;10.38;;;;;;;0.90;60.56;100766.09;5035804;28;20057;-80
2022/03/03 01:21:36;;;;;;;15.23;10.55;;;;;;;0.87;60.20;100758.38;5040858;28;20052;-80
2022/03/03 01:24:03;;;;;;;15.05;10.68;;;;;;;0.81;60.71;100760.16;5037164;28;20057;-80
2022/03/03 01:26:31;;;;;;;15.77;10.38;;;;;;;0.79;60.62;100763.16;5032562;28;20060;-81
2022/03/03 01:28:58;;;;;;;13.80;9.93;;;;;;;0.79;60.33;100756.84;5037759;28;20497;-80
2022/03/03 01:31:26;;;;;;;13.73;10.32;;;;;;;0.79;60.47;100751.34;5032004;28;20053;-80
2022/03/03 01:33:53;;;;;;;14.25;10.35;;;;;;;0.78;60.24;100750.53;5031505;28;20050;-80
2022/03/03 01:36:20;;;;;;;16.00;11.15;;;;;;;0.79;60.60;100759.56;5031532;28;20056;-80
2022/03/03 01:38:49;;;;;;;14.52;10.20;;;;;;;0.79;60.76;100759.56;5032136;28;20057;-80
2022/03/03 01:41:17;;;;;;;13.25;9.90;;;;;;;0.74;60.38;100760.31;5031027;28;20058;-81
2022/03/03 01:43:44;;;;;;;14.35;10.45;;;;;;;0.68;60.86;100750.31;5031596;28;20359;-80
2022/03/03 01:46:12;;;;;;;13.82;11.15;;;;;;;0.69;60.61;100757.44;5032427;28;20406;-80
2022/03/03 01:48:39;;;;;;;14.60;10.00;;;;;;;0.66;60.73;100757.94;5032046;28;20049;-80
2022/03/03 01:51:07;;;;;;;13.98;9.30;;;;;;;0.65;60.33;100755.44;5035289;28;20498;-81
2022/03/03 01:53:34;;;;;;;14.65;10.07;;;;;;;0.63;60.62;100760.31;5031380;28;20060;-80
2022/03/03 01:56:03;;;;;;;14.13;10.45;;;;;;;0.62;61.05;100754.03;5032481;28;20498;-81
2022/03/03 01:58:31;;;;;;;14.32;10.00;;;;;;;0.63;60.85;100755.69;5032711;28;20050;-81
2022/03/03 02:00:59;;;;;;;15.35;9.40;;;;;;;0.57;60.84;100742.97;5035548;28;20061;-80
2022/03/03 02:03:27;;;;;;;14.38;10.40;;;;;;;0.51;61.23;100742.00;5035969;28;20061;-80
2022/03/03 02:05:54;;;;;;;15.05;10.52;;;;;;;0.52;61.04;100745.56;5036291;28;20539;-80
2022/03/03 02:08:23;;;;;;;13.70;9.93;;;;;;;0.50;61.20;100736.75;5035456;28;20061;-80
2022/03/03 02:10:51;;;;;;;15.15;10.32;;;;;;;0.49;61.10;100735.09;5035530;28;20426;-80
2022/03/03 02:13:20;;;;;;;15.40;11.63;;;;;;;0.48;60.98;100744.38;5044900;28;20489;-80
2022/03/03 02:15:49;;;;;;;15.68;10.25;;;;;;;0.47;61.53;100738.06;5044001;28;20049;-80
2022/03/03 02:18:16;;;;;;;15.82;10.43;;;;;;;0.44;61.48;100734.97;5036276;28;20049;-80
2022/03/03 02:20:45;;;;;;;14.15;10.43;;;;;;;0.42;61.72;100740.72;5036691;28;20425;-80
2022/03/03 02:23:12;;;;;;;14.52;11.05;;;;;;;0.40;61.92;100740.13;5031834;28;20061;-80
2022/03/03 02:25:40;;;;;;;14.88;11.00;;;;;;;0.41;61.73;100747.25;5036629;28;20057;-80
2022/03/03 02:28:07;;;;;;;16.98;11.63;;;;;;;0.40;61.71;100740.94;5035420;28;20053;-80
2022/03/03 02:30:34;;;;;;;15.40;10.88;;;;;;;0.38;61.61;100732.13;5034955;28;20045;-80
2022/03/03 02:33:02;;;;;;;16.83;11.50;;;;;;;0.37;61.81;100733.19;5035121;28;20057;-81
2022/03/03 02:35:29;;;;;;;14.30;10.35;;;;;;;0.37;61.53;100724.97;5036346;28;20049;-80
2022/03/03 02:37:58;;;;;;;15.77;11.32;;;;;;;0.37;61.43;100727.72;5035435;28;20422;-81
2022/03/03 02:40:26;;;;;;;15.30;10.40;;;;;;;0.34;61.71;100733.69;5033959;28;20075;-81
2022/03/03 02:42:55;;;;;;;14.30;10.05;;;;;;;0.31;61.32;100723.19;5035146;28;20520;-80
2022/03/03 02:45:23;;;;;;;15.52;10.38;;;;;;;0.32;61.51;100722.13;5036044;28;20058;-80
2022/03/03 02:47:52;;;;;;;16.58;10.80;;;;;;;0.29;62.14;100717.13;5035646;28;20061;-80
2022/03/03 02:50:22;;;;;;;17.75;11.43;;;;;;;0.25;62.31;100718.69;5035230;28;20053;-80
2022/03/03 02:52:49;;;;;;;16.13;10.10;;;;;;;0.24;62.03;100716.19;5034883;28;20068;-80
2022/03/03 02:55:18;;;;;;;14.25;10.18;;;;;;;0.21;61.94;100714.78;5036125;28;20049;-80
2022/03/03 02:57:54;;;;;;;13.70;9.82;;;;;;;0.22;62.21;100718.34;5035721;28;20061;-81
2022/03/03 03:00:22;;;;;;;13.45;9.55;;;;;;;0.18;62.24;100717.97;5036080;28;20057;-80
2022/03/03 03:02:50;;;;;;;15.02;10.38;;;;;;;0.19;61.70;100714.19;5035662;28;20050;-80
2022/03/03 03:05:19;;;;;;;15.23;10.63;;;;;;;0.15;62.10;100708.34;4996638;28;20418;-80
2022/03/03 03:07:47;;;;;;;14.95;9.48;;;;;;;0.15;62.28;100704.78;4996957;28;20054;-81
2022/03/03 03:10:14;;;;;;;14.77;9.95;;;;;;;0.12;62.41;100706.06;4996305;28;20050;-80
2022/03/03 03:12:43;;;;;;;17.65;10.50;;;;;;;0.11;62.02;100707.16;4996162;28;20428;-80
2022/03/03 03:15:11;;;;;;;15.83;10.70;;;;;;;0.11;62.07;100709.06;4996182;28;20046;-80
2022/03/03 03:17:39;;;;;;;17.42;11.52;;;;;;;0.12;61.80;100700.59;4995846;28;20831;-80
2022/03/03 03:20:08;;;;;;;14.68;11.30;;;;;;;0.10;61.97;100697.25;4999544;28;20117;-80
2022/03/03 03:22:36;;;;;;;16.17;11.32;;;;;;;0.09;61.98;100703.00;5015466;28;20054;-80
2022/03/03 03:25:07;;;;;;;16.70;11.73;;;;;;;0.07;61.94;100699.66;4998247;28;20061;-81
2022/03/03 03:27:35;;;;;;;15.93;10.77;;;;;;;0.04;62.11;100694.66;4996137;28;20231;-80
2022/03/03 03:30:04;;;;;;;15.32;10.45;;;;;;;-0.02;62.35;100694.53;4995636;28;20139;-81
2022/03/03 03:32:32;;;;;;;16.55;11.10;;;;;;;-0.01;62.16;100695.38;4993788;28;20426;-82
2022/03/03 03:34:59;;;;;;;16.45;11.38;;;;;;;-0.05;62.47;100692.28;4995404;28;20054;-81
2022/03/03 03:37:26;;;;;;;14.82;10.30;;;;;;;-0.02;62.42;100690.97;4995567;28;20061;-82
2022/03/03 03:39:54;;;;;;;15.85;11.00;;;;;;;-0.07;62.20;100686.19;4994641;28;20482;-81
2022/03/03 03:42:21;;;;;;;15.57;10.55;;;;;;;-0.08;62.64;100684.53;4994604;28;20046;-82
2022/03/03 03:44:48;;;;;;;15.38;10.60;;;;;;;-0.10;62.51;100678.47;4994561;28;20046;-82
2022/03/03 03:47:17;;;;;;;16.67;10.35;;;;;;;-0.10;62.58;100667.53;4994707;28;20063;-81
2022/03/03 03:49:45;;;;;;;16.15;11.27;;;;;;;-0.11;62.51;100676.78;4994002;28;20054;-81
2022/03/03 03:52:12;;;;;;;16.23;10.75;;;;;;;-0.15;62.81;100678.34;4995598;28;20395;-82
2022/03/03 03:54:39;;;;;;;17.65;11.90;;;;;;;-0.19;62.94;100673.59;4994729;28;20042;-82
2022/03/03 03:57:09;;;;;;;15.13;10.52;;;;;;;-0.22;63.17;100675.72;4995062;28;20054;-82
2022/03/03 03:59:36;;;;;;;17.80;11.45;;;;;;;-0.26;62.99;100673.72;4994041;28;20415;-81
2022/03/03 04:02:04;;;;;;;15.13;10.75;;;;;;;-0.27;62.89;100672.88;4994577;28;20061;-81
2022/03/03 04:04:33;;;;;;;18.00;11.10;;;;;;;-0.23;62.68;100670.50;5021513;28;20041;-81
2022/03/03 04:07:00;;;;;;;14.02;10.65;;;;;;;-0.23;62.45;100675.97;5036366;28;20413;-81
2022/03/03 04:09:27;;;;;;;15.50;11.20;;;;;;;-0.25;62.64;100680.88;5033520;28;20053;-80
2022/03/03 04:11:55;;;;;;;19.42;12.25;;;;;;;-0.27;62.88;100672.06;5034265;28;20057;-81
2022/03/03 04:14:22;;;;;;;15.95;10.63;;;;;;;-0.31;62.99;100676.34;5034733;28;20045;-80
2022/03/03 04:16:50;;;;;;;16.20;11.88;;;;;;;-0.31;62.61;100676.34;5034458;28;20417;-80
2022/03/03 04:19:17;;;;;;;16.58;10.77;;;;;;;-0.34;62.92;100676.78;5033992;28;20061;-80
2022/03/03 04:21:46;;;;;;;17.10;11.60;;;;;;;-0.34;63.14;100679.53;5014367;28;20399;-80
2022/03/03 04:24:13;;;;;;;15.63;11.27;;;;;;;-0.37;62.92;100672.63;5023006;28;20068;-80
2022/03/03 04:26:40;;;;;;;17.45;12.25;;;;;;;-0.40;63.05;100664.88;5033298;28;20057;-80
2022/03/03 04:29:07;;;;;;;14.82;11.38;;;;;;;-0.43;63.01;100663.47;5036278;28;20049;-80
2022/03/03 04:31:35;;;;;;;21.90;11.85;;;;;;;-0.43;63.23;100666.19;5040546;28;20076;-80
2022/03/03 04:34:02;;;;;;;14.77;10.85;;;;;;;-0.47;63.30;100670.47;5033686;28;20054;-81
2022/03/03 04:36:30;;;;;;;14.88;10.80;;;;;;;-0.48;63.70;100670.72;5033088;28;20045;-80
2022/03/03 04:38:59;;;;;;;18.98;12.63;;;;;;;-0.50;63.10;100667.41;5032641;28;20060;-81
2022/03/03 04:41:26;;;;;;;14.48;10.80;;;;;;;-0.54;63.72;100667.03;5032968;28;20045;-80
2022/03/03 04:43:53;;;;;;;16.52;11.07;;;;;;;-0.52;63.83;100670.38;5033652;28;20470;-80
2022/03/03 04:46:21;;;;;;;17.25;10.90;;;;;;;-0.51;63.47;100666.53;5033882;28;20057;-80
2022/03/03 04:48:48;;;;;;;16.60;11.00;;;;;;;-0.51;63.14;100655.59;5032919;28;20061;-80
2022/03/03 04:51:15;;;;;;;15.63;10.75;;;;;;;-0.53;63.44;100655.00;5032616;28;20065;-81
2022/03/03 04:53:43;;;;;;;16.58;10.45;;;;;;;-0.50;63.34;100648.25;5033026;28;20057;-79
2022/03/03 04:56:11;;;;;;;17.15;11.88;;;;;;;-0.54;63.23;100647.88;5033268;28;20049;-80
2022/03/03 04:58:40;;;;;;;18.23;10.65;;;;;;;-0.57;63.60;100656.53;5033363;28;20386;-79
2022/03/03 05:01:07;;;;;;;17.13;10.60;;;;;;;-0.58;63.51;100654.88;5023072;28;20072;-80
2022/03/03 05:03:35;;;;;;;18.00;10.55;;;;;;;-0.60;63.25;100651.56;5032525;28;20050;-79
2022/03/03 05:06:02;;;;;;;16.63;10.80;;;;;;;-0.60;63.99;100657.03;5032518;28;20049;-80
2022/03/03 05:08:30;;;;;;;15.52;10.40;;;;;;;-0.60;63.67;100657.03;5032657;28;20056;-80
2022/03/03 05:10:57;;;;;;;13.90;10.70;;;;;;;-0.61;63.67;100644.41;5032269;28;20068;-80
2022/03/03 05:13:26;;;;;;;15.93;10.40;;;;;;;-0.59;63.65;100647.72;5032840;28;20390;-80
2022/03/03 05:15:54;;;;;;;13.65;9.77;;;;;;;-0.59;63.66;100641.44;5032769;28;20410;-80
2022/03/03 05:18:21;;;;;;;14.63;10.75;;;;;;;-0.58;63.28;100649.41;5032913;28;20431;-80
2022/03/03 05:20:48;;;;;;;14.93;9.63;;;;;;;-0.58;63.22;100654.88;5032336;28;20056;-80
2022/03/03 05:23:16;;;;;;;13.52;9.95;;;;;;;-0.68;63.56;100644.53;5033333;28;20513;-80
2022/03/03 05:25:43;;;;;;;14.77;9.77;;;;;;;-0.67;63.38;100645.38;5033502;28;20057;-80
2022/03/03 05:28:10;;;;;;;14.10;9.60;;;;;;;-0.69;63.78;100642.03;5032146;28;20455;-80
2022/03/03 05:30:39;;;;;;;13.90;9.60;;;;;;;-0.73;63.63;100640.84;5033799;28;20049;-80
2022/03/03 05:33:07;;;;;;;16.02;10.68;;;;;;;-0.79;64.37;100647.25;5033553;28;20049;-80
2022/03/03 05:35:34;;;;;;;21.65;10.93;;;;;;;-0.77;64.08;100651.41;5035334;28;20041;-80
2022/03/03 05:38:01;;;;;;;14.88;10.13;;;;;;;-0.78;64.47;100638.78;5036480;28;20060;-80
2022/03/03 05:40:30;;;;;;;14.05;9.25;;;;;;;-0.78;64.56;100640.69;5037263;28;20405;-81
2022/03/03 05:42:57;;;;;;;14.80;10.77;;;;;;;-0.82;64.49;100637.59;5038685;28;20058;-80
2022/03/03 05:45:28;;;;;;;15.32;10.13;;;;;;;-0.80;64.61;100646.41;5037430;28;20057;-80
2022/03/03 05:47:57;;;;;;;14.65;10.20;;;;;;;-0.77;64.12;100639.66;5036313;28;20061;-80
2022/03/03 05:50:24;;;;;;;15.90;10.73;;;;;;;-0.73;64.32;100630.72;5036849;28;20058;-80
2022/03/03 05:52:52;;;;;;;14.73;9.68;;;;;;;-0.74;64.42;100639.16;5036455;28;20402;-80
2022/03/03 05:55:20;;;;;;;16.80;10.77;;;;;;;-0.79;64.46;100630.84;5036744;28;20054;-80
2022/03/03 05:57:51;;;;;;;16.40;11.05;;;;;;;-0.81;64.71;100631.06;5034786;28;20053;-81
2022/03/03 06:00:21;;;;;;;14.57;9.98;;;;;;;-0.82;64.35;100630.25;5037043;28;20397;-80
2022/03/03 06:02:51;;;;;;;17.40;11.05;;;;;;;-0.83;64.26;100627.75;5036519;28;20053;-81
2022/03/03 06:05:21;;;;;;;;;;;;;;;-0.85;64.34;100629.88;5037416;28;20049;-81
2022/03/03 06:07:53;;;;;;;18.52;11.98;;;;;;;-0.83;63.98;100623.09;5035935;28;19928;-81
2022/03/03 06:10:23;;;;;;;16.63;10.85;;;;;;;-0.83;64.37;100625.00;5037798;28;20049;-80
2022/03/03 06:12:55;;;;;;;18.67;11.90;;;;;;;-0.80;64.09;100631.91;5036502;28;20057;-81
2022/03/03 06:15:23;;;;;;;17.88;11.57;;;;;;;-0.77;64.31;100628.72;5037527;28;20053;-81
2022/03/03 06:17:51;;;;;;;15.20;10.40;;;;;;;-0.72;64.05;100629.66;5036367;28;20462;-81
2022/03/03 06:20:21;;;;;;;15.10;10.25;;;;;;;-0.65;63.96;100633.13;5036390;28;20064;-80
2022/03/03 06:22:48;;;;;;;14.13;9.85;;;;;;;-0.60;63.84;100629.69;5017442;28;20061;-80
2022/03/03 06:25:16;;;;;;;16.35;10.90;;;;;;;-0.54;63.23;100623.25;5035764;28;20053;-80
2022/03/03 06:27:43;;;;;;;16.98;11.45;;;;;;;-0.56;63.73;100625.41;5036188;28;20069;-81
2022/03/03 06:30:11;;;;;;;15.80;10.70;;;;;;;-0.55;63.66;100618.84;5035972;28;20049;-80
2022/03/03 06:32:38;;;;;;;16.80;10.80;;;;;;;-0.48;63.41;100621.47;5036142;28;20053;-80
2022/03/03 06:35:06;;;;;;;14.13;9.88;;;;;;;-0.46;63.40;100622.06;5035004;28;20056;-81
2022/03/03 06:37:35;;;;;;;13.68;9.57;;;;;;;-0.41;63.11;100625.75;5035651;28;20045;-81
2022/03/03 06:40:04;;;;;;;16.25;10.70;;;;;;;-0.36;62.84;100619.56;5037263;28;20064;-80
2022/03/03 06:42:31;;;;;;;16.00;10.73;;;;;;;-0.06;62.34;100619.44;5036662;28;20490;-80
2022/03/03 06:44:59;;;;;;;13.70;10.35;;;;;;;0.52;60.80;100614.03;5035456;28;20061;-80
2022/03/03 06:47:26;;;;;;;15.52;10.57;;;;;;;0.65;60.67;100602.78;5032900;28;20049;-77
2022/03/03 06:49:55;;;;;;;14.57;10.75;;;;;;;0.99;60.23;100613.81;5036804;28;20053;-84
2022/03/03 06:52:26;;;;;;;16.60;11.95;;;;;;;2.19;58.48;100616.19;5036859;28;20056;-84
2022/03/03 06:54:55;;;;;;;14.90;10.88;;;;;;;3.42;55.59;100606.41;5036490;28;20049;-82
2022/03/03 06:57:24;;;;;;;13.73;11.07;;;;;;;4.51;52.86;100600.41;5036052;28;20045;-84
2022/03/03 06:59:52;;;;;;;18.10;10.80;;;;;;;5.53;50.76;100599.72;5035517;28;20057;-83
2022/03/03 07:02:20;;;;;;;14.68;10.05;;;;;;;6.52;47.78;100599.19;5036572;28;20491;-85
2022/03/03 07:04:49;;;;;;;13.05;9.32;;;;;;;7.38;45.83;100605.28;5037881;28;20054;-83
2022/03/03 07:07:17;;;;;;;11.75;10.05;;;;;;;8.32;43.45;100602.09;5035959;28;20060;-83
2022/03/03 07:09:45;;;;;;;14.10;10.77;;;;;;;9.19;41.06;100603.69;5036310;28;20052;-84
2022/03/03 07:12:16;;;;;;;11.63;9.85;;;;;;;10.05;39.00;100613.63;5036006;28;20053;-82
2022/03/03 07:14:44;;;;;;;12.65;11.13;;;;;;;10.66;36.90;100617.16;5036238;28;20050;-82
2022/03/03 07:17:18;;;;;;;11.52;10.32;;;;;;;11.36;35.83;100613.88;5036041;28;20049;-82
2022/03/03 07:19:55;;;;;;;13.30;11.10;;;;;;;12.07;34.54;100606.78;5035201;28;20061;-82
2022/03/03 07:22:31;;;;;;;13.50;11.60;;;;;;;12.89;32.89;100608.03;5035802;28;20053;-82
2022/03/03 07:25:03;;;;;;;15.20;12.13;;;;;;;13.46;31.39;100614.66;5035085;28;20064;-82
2022/03/03 07:27:32;;;;;;;14.27;11.93;;;;;;;14.09;30.34;100615.84;5035175;28;20057;-83
2022/03/03 07:30:04;;;;;;;14.52;12.05;;;;;;;14.44;29.95;100607.28;5036187;28;20057;-85
2022/03/03 07:32:34;;;;;;;12.85;10.57;;;;;;;15.09;28.81;100602.28;5031962;28;20069;-83
2022/03/03 07:35:05;;;;;;;14.02;10.38;;;;;;;15.66;28.22;100597.97;5034930;28;20056;-83
2022/03/03 07:44:09;;;;;;;13.23;10.90;;;;;;;16.97;25.37;100605.66;4766498;22;20982;-83
2022/03/03 07:46:38;;;;;;;13.68;11.25;;;;;;;17.40;25.16;100601.28;4992019;28;20047;-84
2022/03/03 07:49:05;;;;;;;;;;;;;;;17.65;24.40;100610.44;4999468;28;20058;-85
2022/03/03 07:51:33;;;;;;;12.18;10.80;;;;;;;18.14;24.30;100615.06;5002032;28;19921;-85
2022/03/03 07:54:00;;;;;;;13.18;10.88;;;;;;;18.88;23.26;100605.16;4996026;28;20073;-84
2022/03/03 07:56:33;;;;;;;13.88;11.68;;;;;;;19.30;22.39;100602.50;4997214;28;20433;-85
2022/03/03 07:59:04;;;;;;;12.75;11.40;;;;;;;19.62;21.92;100605.97;4982285;28;20514;-85
2022/03/03 08:01:35;;;;;;;13.57;11.02;;;;;;;19.93;21.61;100609.00;4983476;28;20043;-85
2022/03/03 08:04:03;;;;;;;16.83;13.88;;;;;;;20.38;21.09;100598.91;4996993;28;20050;-84
2022/03/03 08:06:33;;;;;;;15.05;13.35;;;;;;;20.70;20.90;100607.16;5000601;28;20039;-84
2022/03/03 08:09:01;;;;;;;13.75;12.35;;;;;;;21.11;20.39;100599.66;5000783;28;20050;-84
2022/03/03 08:11:29;;;;;;;12.45;11.15;;;;;;;21.50;20.06;100602.22;4991190;28;20073;-84
2022/03/03 08:13:57;;;;;;;13.13;11.10;;;;;;;21.69;20.27;100610.56;5001421;28;20053;-84
2022/03/03 08:16:26;;;;;;;12.35;10.63;;;;;;;22.33;19.34;100603.13;4999627;28;20054;-83
2022/03/03 08:18:57;;;;;;;;;;;;;;;22.21;19.12;100605.00;5001418;28;20065;-85
2022/03/03 08:21:27;;;;;;;12.25;10.95;;;;;;;23.06;19.12;100601.28;4999122;28;19922;-86
2022/03/03 08:23:58;;;;;;;12.30;10.88;;;;;;;23.58;18.55;100603.13;5003292;28;20051;-86
2022/03/03 08:26:26;;;;;;;13.75;11.07;;;;;;;24.06;18.32;100594.34;4996946;28;20047;-86
2022/03/03 08:28:54;;;;;;;10.35;9.30;;;;;;;24.46;17.77;100600.88;5009292;28;20057;-84
2022/03/03 08:31:28;;;;;;;10.25;9.25;;;;;;;24.87;17.67;100600.47;4992406;28;20528;-84
2022/03/03 08:34:03;;;;;;;11.10;9.88;;;;;;;25.41;16.84;100604.03;4996633;28;20149;-83
2022/03/03 08:36:44;;;;;;;10.27;9.18;;;;;;;25.51;16.42;100583.22;5005967;28;20061;-83
2022/03/03 08:39:14;;;;;;;10.38;9.43;;;;;;;25.86;16.38;100581.38;5012052;28;20058;-82
2022/03/03 08:41:43;;;;;;;12.50;10.15;;;;;;;26.28;15.90;100579.47;5010379;28;20510;-83
2022/03/03 08:44:12;;;;;;;11.77;9.85;;;;;;;26.80;15.42;100575.78;4997132;28;20054;-83
2022/03/03 08:46:41;;;;;;;10.63;9.50;;;;;;;27.02;15.07;100575.56;5030415;28;20065;-85
2022/03/03 08:49:11;;;;;;;10.63;9.63;;;;;;;27.59;14.62;100568.34;5059056;28;20484;-84
2022/03/03 08:51:40;;;;;;;10.65;9.52;;;;;;;27.96;14.32;100573.16;5049963;28;20061;-84
2022/03/03 08:54:08;;;;;;;;;;;;;;;27.22;13.98;100578.59;5044912;28;20064;-84
2022/03/03 08:56:36;;;;;;;11.25;10.15;;;;;;;27.73;13.66;100573.88;5044926;28;19928;-84
2022/03/03 08:59:07;;;;;;;10.63;9.52;;;;;;;28.25;13.43;100570.66;5049869;28;20072;-84
2022/03/03 09:01:34;;;;;;;11.07;9.98;;;;;;;28.46;13.68;100574.41;5044102;28;20080;-84
2022/03/03 09:04:02;;;;;;;11.63;10.40;;;;;;;28.71;13.38;100576.88;5039088;28;20064;-83
2022/03/03 09:06:31;;;;;;;10.45;9.38;;;;;;;29.22;12.92;100573.88;5037013;28;20060;-84
2022/03/03 09:09:02;;;;;;;11.57;10.18;;;;;;;29.49;12.58;100571.66;5039479;28;20506;-85
2022/03/03 09:11:30;;;;;;;10.98;9.90;;;;;;;29.93;12.12;100572.34;5039282;28;20068;-84
2022/03/03 09:13:59;;;;;;;11.55;10.32;;;;;;;30.11;11.70;100563.31;5044021;28;20062;-83
2022/03/03 09:16:27;;;;;;;12.45;9.75;;;;;;;30.32;11.87;100567.75;5041647;28;20056;-83
2022/03/03 09:18:54;;;;;;;10.77;9.73;;;;;;;30.20;11.78;100564.72;5042395;28;20379;-83
2022/03/03 09:21:22;;;;;;;11.38;10.27;;;;;;;30.71;11.87;100560.16;5047440;28;20055;-84
2022/03/03 09:23:49;;;;;;;10.68;9.68;;;;;;;31.00;11.98;100555.72;5033502;28;20052;-83
2022/03/03 09:26:18;;;;;;;10.93;9.52;;;;;;;31.39;11.40;100553.75;5022520;28;20490;-84
2022/03/03 09:28:45;;;;;;;;;;;;;;;30.80;11.54;100552.94;5037188;28;20072;-83
2022/03/03 09:31:12;;;;;;;13.10;10.07;;;;;;;31.69;10.96;100549.59;5042179;28;19932;-83
2022/03/03 09:33:40;;;;;;;12.25;9.93;;;;;;;31.95;10.88;100551.19;5033346;28;20049;-84
2022/03/03 09:36:08;;;;;;;12.60;9.73;;;;;;;31.56;11.07;100546.66;5038711;28;20489;-83
2022/03/03 09:38:35;;;;;;;11.82;9.38;;;;;;;32.02;11.17;100550.19;5038475;28;20053;-84
2022/03/03 09:41:02;;;;;;;10.48;9.38;;;;;;;32.07;11.07;100546.75;5039600;28;20113;-84
2022/03/03 09:43:33;;;;;;;11.77;10.57;;;;;;;32.25;11.16;100534.59;5045987;28;20057;-82
2022/03/03 09:46:00;;;;;;;10.77;9.77;;;;;;;32.29;10.79;100529.53;5021150;28;20076;-82
2022/03/03 09:48:28;;;;;;;11.27;10.05;;;;;;;32.72;10.56;100536.72;5036829;28;20053;-84
2022/03/03 09:50:55;;;;;;;12.23;9.73;;;;;;;32.69;11.32;100528.97;5034489;28;20057;-83
2022/03/03 09:53:22;;;;;;;13.07;9.48;;;;;;;32.90;10.97;100533.16;5042674;28;20441;-82
2022/03/03 09:55:51;;;;;;;11.30;9.85;;;;;;;32.44;11.28;100526.16;5027683;28;20058;-83
2022/03/03 09:58:18;;;;;;;10.32;9.32;;;;;;;32.54;11.06;100525.81;5043014;28;20053;-82
2022/03/03 10:00:50;;;;;;;11.55;10.35;;;;;;;32.28;11.25;100522.16;5035969;28;20057;-83
2022/03/03 10:03:18;;;;;;;13.13;9.90;;;;;;;32.55;11.12;100530.31;5032775;28;20045;-83
2022/03/03 10:05:51;;;;;;;10.27;9.38;;;;;;;33.19;10.68;100525.56;5030847;28;20057;-85
2022/03/03 10:08:19;;;;;;;11.27;9.50;;;;;;;33.28;10.62;100526.41;5038048;28;20049;-84
2022/03/03 10:10:48;;;;;;;11.63;10.23;;;;;;;33.21;10.66;100526.69;5035954;28;20710;-83
2022/03/03 10:13:18;;;;;;;12.23;10.40;;;;;;;33.56;10.68;100521.63;5039037;28;20048;-85
2022/03/03 10:15:47;;;;;;;9.68;8.77;;;;;;;33.60;9.98;100523.56;5033598;28;20077;-85
2022/03/03 10:18:16;;;;;;;;;;;;;;;33.43;9.95;100506.47;5033160;28;20417;-85
2022/03/03 10:20:52;;;;;;;9.48;8.38;;;;;;;34.12;9.56;100510.31;5036217;28;19943;-85
2022/03/03 10:23:25;;;;;;;9.15;8.20;;;;;;;34.48;9.37;100508.78;5037684;28;20056;-85
2022/03/03 10:25:53;;;;;;;10.63;8.23;;;;;;;35.32;8.22;100504.63;5035345;28;20060;-86
2022/03/03 10:28:23;;;;;;;8.80;7.90;;;;;;;35.07;8.76;100512.38;5021566;28;20057;-86
2022/03/03 10:31:02;;;;;;;12.10;8.43;;;;;;;35.44;8.45;100515.22;5048454;28;20060;-86
2022/03/03 10:33:34;;;;;;;8.90;8.00;;;;;;;35.57;8.93;100512.09;5050347;28;20053;-86
2022/03/03 10:36:08;;;;;;;9.18;8.27;;;;;;;35.96;8.78;100512.31;5037004;28;20090;-86
2022/03/03 10:38:45;;;;;;;9.02;8.23;;;;;;;36.14;8.05;100515.16;5036949;28;20501;-86
2022/03/03 10:41:27;;;;;;;8.55;7.75;;;;;;;35.95;8.62;100511.50;5056659;28;20055;-86
2022/03/03 10:43:55;;;;;;;8.52;7.72;;;;;;;36.22;7.84;100511.88;5052520;28;20072;-86
2022/03/03 10:46:22;;;;;;;8.77;7.87;;;;;;;36.19;7.70;100504.97;5035886;28;20057;-86
2022/03/03 10:48:51;;;;;;;8.70;7.85;;;;;;;36.60;7.59;100505.31;5039035;28;20413;-86
2022/03/03 10:51:21;;;;;;;9.00;8.10;;;;;;;35.92;7.77;100512.47;5043196;28;20371;-86
2022/03/03 10:53:48;;;;;;;8.45;7.57;;;;;;;35.68;8.46;100500.84;5036551;28;20060;-86
2022/03/03 10:56:16;;;;;;;10.10;7.90;;;;;;;36.20;8.05;100500.75;5037670;28;20050;-86
2022/03/03 10:58:48;;;;;;;8.73;7.72;;;;;;;36.16;7.82;100503.84;5037179;28;20058;-86
2022/03/03 11:01:18;;;;;;;10.68;8.23;;;;;;;36.40;7.62;100499.34;5040950;28;20053;-85
2022/03/03 11:03:49;;;;;;;8.38;7.53;;;;;;;36.29;7.84;100503.63;5040112;28;20071;-86
2022/03/03 11:06:20;;;;;;;7.90;7.20;;;;;;;36.36;7.65;100497.44;5037693;28;20045;-86
2022/03/03 11:08:52;;;;;;;8.13;7.32;;;;;;;36.74;7.11;100501.69;5055835;28;20049;-86
2022/03/03 11:11:20;;;;;;;9.13;8.32;;;;;;;36.47;6.96;100498.97;5040914;28;20612;-86
2022/03/03 11:13:49;;;;;;;9.43;7.22;;;;;;;36.86;7.36;100499.00;5036842;28;20053;-86
2022/03/03 11:16:18;;;;;;;8.10;7.20;;;;;;;37.11;7.14;100500.59;5035485;28;20064;-86
2022/03/03 11:18:46;;;;;;;8.07;7.28;;;;;;;37.38;6.63;100505.28;5035575;28;20057;-85
2022/03/03 11:21:14;;;;;;;8.00;7.20;;;;;;;37.51;6.99;100505.78;5035509;28;20057;-86
2022/03/03 11:23:44;;;;;;;8.35;6.88;;;;;;;37.57;7.14;100509.63;5035988;28;20060;-86
2022/03/03 11:26:21;;;;;;;8.35;7.55;;;;;;;37.56;6.97;100499.25;5035401;28;20048;-85
2022/03/03 11:29:00;;;;;;;7.80;7.10;;;;;;;37.53;7.00;100511.88;5033472;28;20064;-85
2022/03/03 11:31:31;;;;;;;8.27;7.57;;;;;;;37.33;7.43;100505.97;5025906;28;20048;-82